createdAt,value
2019-02-09T00:01:38.036Z,52.70
2019-02-09T00:04:37.691Z,52.70
2019-02-09T00:07:24.965Z,52.70
2019-02-09T00:10:15.215Z,52.70
2019-02-09T00:13:18.950Z,52.70
2019-02-09T00:16:15.173Z,52.80
2019-02-09T00:18:59.412Z,52.80
2019-02-09T00:21:47.204Z,52.80
2019-02-09T00:24:35.634Z,52.90
2019-02-09T00:27:51.494Z,52.70
2019-02-09T00:30:35.869Z,53.00
2019-02-09T00:33:22.756Z,53.00
2019-02-09T00:36:22.489Z,53.00
2019-02-09T00:39:21.053Z,53.10
2019-02-09T00:42:07.986Z,53.00
2019-02-09T00:45:14.438Z,53.00
2019-02-09T00:48:07.022Z,53.70
2019-02-09T00:50:51.921Z,53.10
2019-02-09T00:53:41.545Z,53.10
2019-02-09T00:56:41.523Z,53.10
2019-02-09T00:59:23.944Z,53.20
2019-02-09T01:02:17.904Z,53.10
2019-02-09T01:05:01.645Z,53.20
2019-02-09T01:08:00.146Z,53.10
2019-02-09T01:11:01.722Z,53.20
2019-02-09T01:13:42.268Z,53.20
2019-02-09T01:16:30.338Z,53.10
2019-02-09T01:19:12.479Z,53.20
2019-02-09T01:21:53.130Z,53.20
2019-02-09T01:24:42.782Z,53.20
2019-02-09T01:27:33.817Z,53.20
2019-02-09T01:30:26.573Z,53.20
2019-02-09T01:33:38.625Z,53.30
2019-02-09T01:36:44.674Z,53.30
2019-02-09T01:39:35.773Z,53.30
2019-02-09T01:42:19.435Z,53.30
2019-02-09T01:45:08.848Z,53.30
2019-02-09T01:48:16.481Z,53.40
2019-02-09T01:51:08.042Z,53.40
2019-02-09T01:54:15.877Z,53.30
2019-02-09T01:57:19.683Z,53.30
2019-02-09T02:00:32.659Z,53.40
2019-02-09T02:03:52.320Z,53.30
2019-02-09T02:09:37.111Z,53.30
2019-02-09T02:12:27.789Z,53.30
2019-02-09T02:15:28.698Z,53.40
2019-02-09T02:18:18.814Z,53.30
2019-02-09T02:21:20.536Z,53.30
2019-02-09T02:24:53.438Z,53.30
2019-02-09T06:35:39.050Z,42.90
2019-02-09T07:20:55.005Z,48.40
2019-02-09T07:27:52.228Z,49.00
2019-02-09T07:30:58.044Z,49.30
2019-02-09T07:54:40.192Z,49.60
2019-02-09T08:43:15.084Z,48.70
2019-02-09T10:05:53.279Z,49.00
2019-02-09T10:08:48.573Z,49.10
2019-02-09T10:11:41.991Z,49.70
2019-02-09T10:14:41.433Z,50.10
2019-02-09T10:17:43.238Z,50.60
2019-02-09T10:21:00.519Z,50.80
2019-02-09T10:24:22.807Z,51.10
2019-02-09T10:27:35.645Z,51.20
2019-02-09T10:30:33.498Z,51.40
2019-02-09T10:33:37.364Z,51.60
2019-02-09T10:36:24.934Z,51.90
2019-02-09T10:39:25.780Z,51.90
2019-02-09T10:42:30.429Z,52.20
2019-02-09T10:45:35.851Z,52.50
2019-02-09T10:48:27.457Z,52.60
2019-02-09T10:51:20.761Z,52.50
2019-02-09T10:54:28.580Z,52.80
2019-02-09T10:57:27.866Z,52.70
2019-02-09T11:00:29.825Z,53.10
2019-02-09T11:03:42.128Z,52.90
2019-02-09T11:06:34.442Z,52.90
2019-02-09T11:09:42.571Z,53.30
2019-02-09T11:12:27.904Z,53.30
2019-02-09T11:15:20.883Z,53.30
2019-02-09T11:18:35.888Z,53.40
2019-02-09T11:21:38.990Z,53.40
2019-02-09T11:24:41.049Z,53.00
2019-02-09T11:27:44.499Z,52.90
2019-02-09T11:31:22.265Z,53.00
2019-02-09T11:34:33.797Z,53.00
2019-02-09T11:37:59.073Z,52.70
2019-02-09T12:00:11.203Z,51.90
2019-02-09T12:07:30.348Z,51.30
2019-02-09T12:10:43.039Z,51.30
2019-02-09T12:13:45.689Z,51.40
2019-02-09T12:17:13.071Z,51.40
2019-02-09T14:03:01.751Z,48.00
2019-02-09T14:05:46.758Z,48.10
2019-02-09T17:31:43.337Z,44.80
2019-02-09T17:42:44.331Z,46.00
2019-02-09T17:45:58.300Z,46.00
2019-02-09T17:48:38.336Z,45.30
2019-02-09T19:08:51.053Z,49.70
2019-02-09T19:12:13.720Z,49.80
2019-02-09T19:15:35.578Z,49.80
2019-02-09T19:18:42.159Z,49.60
2019-02-09T19:21:21.954Z,49.60
2019-02-09T19:24:04.522Z,49.80
2019-02-09T19:26:54.938Z,50.00
2019-02-09T19:29:51.385Z,50.30
2019-02-09T19:32:42.254Z,50.30
2019-02-09T19:35:20.502Z,50.20
2019-02-09T19:38:06.143Z,49.90
2019-02-09T19:40:44.747Z,50.00
2019-02-09T19:43:25.995Z,50.00
2019-02-09T19:46:03.460Z,50.20
2019-02-09T19:48:43.227Z,50.30
2019-02-09T19:51:32.737Z,50.40
2019-02-09T19:54:13.137Z,50.50
2019-02-09T19:56:54.582Z,50.50
2019-02-09T19:59:30.128Z,50.60
2019-02-09T20:02:15.230Z,50.70
2019-02-09T20:30:09.016Z,50.80
2019-02-09T20:40:36.838Z,51.10
2019-02-09T20:43:19.653Z,51.20
2019-02-09T20:46:30.190Z,51.30
2019-02-09T20:49:19.647Z,51.50
2019-02-09T20:52:01.803Z,51.50
2019-02-09T20:54:37.868Z,51.60
2019-02-09T20:57:15.458Z,51.60
2019-02-09T20:59:51.202Z,51.60
2019-02-09T21:02:29.305Z,51.70
2019-02-09T21:05:12.007Z,51.70
2019-02-09T21:07:55.254Z,51.80
2019-02-09T21:10:42.134Z,51.70
2019-02-09T21:13:22.417Z,51.80
2019-02-09T21:16:03.092Z,51.90
2019-02-09T21:18:42.190Z,52.00
2019-02-09T21:21:27.826Z,51.90
2019-02-09T21:24:17.115Z,51.90
2019-02-09T21:27:00.299Z,52.00
2019-02-09T22:07:19.626Z,51.20
2019-02-09T22:10:30.237Z,51.30
2019-02-09T22:20:02.246Z,51.60
2019-02-09T22:23:12.274Z,51.70
2019-02-09T22:26:19.713Z,51.80
2019-02-09T22:29:30.595Z,51.90
2019-02-09T22:32:26.619Z,51.90
2019-02-09T22:35:27.739Z,52.00
2019-02-09T22:38:18.040Z,52.00
2019-02-09T22:41:08.782Z,52.00
2019-02-09T22:44:12.304Z,52.10
2019-02-09T22:50:57.230Z,52.20
2019-02-09T22:54:06.729Z,52.20
2019-02-09T22:56:56.351Z,52.20
2019-02-09T22:59:45.198Z,52.20
2019-02-09T23:02:27.566Z,52.40
2019-02-09T23:09:30.307Z,52.50
2019-02-09T23:12:17.828Z,52.50
2019-02-09T23:14:57.404Z,52.50
2019-02-09T23:18:08.467Z,52.50
2019-02-09T23:24:34.919Z,52.60
2019-02-09T23:27:13.382Z,52.50
2019-02-09T23:29:56.423Z,52.60
2019-02-09T23:32:46.129Z,52.70
2019-02-09T23:35:44.622Z,52.60
2019-02-09T23:38:28.304Z,52.70
2019-02-09T23:41:12.657Z,52.70
2019-02-09T23:43:53.467Z,52.80
2019-02-09T23:46:35.088Z,52.70
2019-02-09T23:49:14.396Z,52.80
2019-02-09T23:51:53.599Z,52.70
2019-02-09T23:54:38.981Z,52.70
2019-02-09T23:57:11.967Z,52.80
